createdAt,value
2018-06-19T00:00:37.401Z,15.20
2018-06-19T00:03:05.792Z,15.30
2018-06-19T00:05:34.102Z,15.20
2018-06-19T00:08:02.988Z,15.20
2018-06-19T00:10:32.224Z,15.20
2018-06-19T00:13:00.547Z,15.20
2018-06-19T00:15:28.857Z,15.20
2018-06-19T00:18:01.187Z,15.20
2018-06-19T00:20:29.535Z,15.20
2018-06-19T00:22:57.838Z,15.20
2018-06-19T00:25:26.169Z,15.20
2018-06-19T00:30:22.521Z,15.20
2018-06-19T00:32:50.801Z,15.20
2018-06-19T00:35:19.084Z,15.20
2018-06-19T00:37:47.379Z,15.20
2018-06-19T00:40:15.689Z,15.20
2018-06-19T00:42:43.975Z,15.20
2018-06-19T00:45:12.263Z,15.20
2018-06-19T00:47:40.589Z,15.20
2018-06-19T00:50:09.005Z,15.20
2018-06-19T00:52:37.299Z,15.20
2018-06-19T00:55:05.579Z,15.20
2018-06-19T00:57:33.881Z,15.30
2018-06-19T01:00:02.181Z,15.30
2018-06-19T01:02:30.477Z,15.30
2018-06-19T01:04:58.789Z,15.30
2018-06-19T01:07:27.095Z,15.30
2018-06-19T01:09:55.389Z,15.30
2018-06-19T01:12:23.689Z,15.30
2018-06-19T01:14:51.971Z,15.30
2018-06-19T01:17:20.259Z,15.30
2018-06-19T01:19:48.553Z,15.30
2018-06-19T01:22:16.825Z,15.40
2018-06-19T01:24:45.101Z,15.30
2018-06-19T01:27:13.411Z,15.30
2018-06-19T01:29:41.728Z,15.30
2018-06-19T01:32:10.035Z,15.30
2018-06-19T01:34:38.395Z,15.40
2018-06-19T01:37:06.718Z,15.40
2018-06-19T01:39:35.013Z,15.40
2018-06-19T01:42:03.299Z,15.40
2018-06-19T01:44:31.563Z,15.40
2018-06-19T01:46:59.884Z,15.40
2018-06-19T01:49:28.291Z,15.40
2018-06-19T01:51:56.573Z,15.40
2018-06-19T01:54:24.875Z,15.40
2018-06-19T01:56:53.169Z,15.50
2018-06-19T01:59:21.433Z,15.50
2018-06-19T02:01:49.765Z,15.50
2018-06-19T02:04:18.059Z,15.50
2018-06-19T02:06:46.430Z,15.50
2018-06-19T02:09:14.703Z,15.50
2018-06-19T02:11:42.978Z,15.50
2018-06-19T02:14:11.333Z,15.50
2018-06-19T02:16:39.607Z,15.50
2018-06-19T02:19:07.923Z,15.50
2018-06-19T02:21:36.201Z,15.50
2018-06-19T02:24:04.496Z,15.50
2018-06-19T02:26:32.789Z,15.50
2018-06-19T02:29:01.141Z,15.50
2018-06-19T02:31:29.437Z,15.50
2018-06-19T02:33:57.743Z,15.60
2018-06-19T02:36:26.038Z,15.60
2018-06-19T02:38:54.321Z,15.60
2018-06-19T02:41:22.616Z,15.60
2018-06-19T02:43:50.931Z,15.60
2018-06-19T02:46:19.245Z,15.60
2018-06-19T02:48:47.521Z,15.60
2018-06-19T02:51:15.837Z,15.60
2018-06-19T02:53:44.124Z,15.60
2018-06-19T02:56:12.435Z,15.60
2018-06-19T02:58:40.736Z,15.60
2018-06-19T03:01:09.081Z,15.70
2018-06-19T03:03:37.380Z,15.70
2018-06-19T03:06:05.797Z,15.70
2018-06-19T03:08:34.143Z,15.70
2018-06-19T03:11:02.437Z,15.70
2018-06-19T03:13:30.725Z,15.70
2018-06-19T03:15:59.077Z,15.70
2018-06-19T03:18:27.371Z,15.70
2018-06-19T03:20:55.681Z,15.70
2018-06-19T03:23:23.996Z,15.70
2018-06-19T03:25:52.307Z,15.80
2018-06-19T03:28:20.605Z,15.70
2018-06-19T03:30:48.889Z,15.80
2018-06-19T03:33:17.169Z,15.80
2018-06-19T03:35:45.463Z,15.80
2018-06-19T03:38:13.757Z,15.80
2018-06-19T03:40:42.051Z,15.80
2018-06-19T03:43:10.316Z,15.80
2018-06-19T03:45:38.617Z,15.80
2018-06-19T03:48:07.761Z,15.80
2018-06-19T03:50:36.053Z,15.80
2018-06-19T03:53:04.412Z,15.90
2018-06-19T03:55:32.741Z,15.90
2018-06-19T03:58:01.051Z,15.90
2018-06-19T04:00:29.347Z,15.90
2018-06-19T04:02:57.642Z,15.90
2018-06-19T04:05:25.921Z,15.90
2018-06-19T04:07:54.205Z,15.90
2018-06-19T04:10:22.491Z,15.90
2018-06-19T04:12:50.806Z,15.90
2018-06-19T04:15:19.245Z,15.90
2018-06-19T04:17:47.578Z,15.90
2018-06-19T04:20:15.873Z,16.00
2018-06-19T04:22:44.149Z,15.90
2018-06-19T04:25:12.447Z,16.00
2018-06-19T04:27:40.755Z,16.00
2018-06-19T04:30:09.043Z,16.00
2018-06-19T04:32:37.335Z,16.00
2018-06-19T04:35:05.623Z,16.00
2018-06-19T04:37:33.922Z,16.00
2018-06-19T04:40:02.219Z,16.00
2018-06-19T04:42:30.493Z,16.00
2018-06-19T04:44:58.794Z,16.00
2018-06-19T04:47:27.095Z,16.10
2018-06-19T04:49:55.457Z,16.10
2018-06-19T04:52:23.772Z,16.10
2018-06-19T04:54:52.054Z,16.10
2018-06-19T04:57:20.348Z,16.20
2018-06-19T04:59:48.659Z,16.20
2018-06-19T05:02:16.964Z,16.20
2018-06-19T05:04:45.244Z,16.20
2018-06-19T05:07:13.555Z,16.20
2018-06-19T05:09:41.885Z,16.20
2018-06-19T05:12:10.193Z,16.30
2018-06-19T05:14:38.514Z,16.30
2018-06-19T05:17:06.845Z,16.30
2018-06-19T05:19:35.170Z,16.30
2018-06-19T05:22:03.475Z,16.30
2018-06-19T05:26:59.845Z,16.30
2018-06-19T05:29:28.207Z,16.40
2018-06-19T05:31:56.526Z,16.40
2018-06-19T05:34:24.829Z,16.40
2018-06-19T05:36:53.106Z,16.40
2018-06-19T05:39:21.415Z,16.40
2018-06-19T05:41:49.721Z,16.40
2018-06-19T05:44:18.027Z,16.40
2018-06-19T05:46:46.377Z,16.40
2018-06-19T05:49:14.703Z,16.50
2018-06-19T05:51:43.019Z,16.50
2018-06-19T05:54:11.322Z,16.50
2018-06-19T05:56:39.609Z,16.50
2018-06-19T05:59:07.917Z,16.60
2018-06-19T06:01:36.243Z,16.60
2018-06-19T06:04:04.570Z,16.60
2018-06-19T06:06:32.887Z,16.70
2018-06-19T06:09:01.161Z,16.70
2018-06-19T06:11:29.436Z,16.70
2018-06-19T06:13:57.723Z,16.80
2018-06-19T06:16:26.112Z,16.80
2018-06-19T06:18:54.371Z,16.90
2018-06-19T06:21:22.759Z,16.90
2018-06-19T06:23:51.099Z,17.00
2018-06-19T06:26:19.395Z,17.00
2018-06-19T06:28:47.688Z,17.10
2018-06-19T06:31:16.001Z,17.10
2018-06-19T06:33:44.297Z,17.00
2018-06-19T06:38:40.827Z,17.00
2018-06-19T06:41:09.108Z,17.00
2018-06-19T06:43:37.425Z,17.00
2018-06-19T06:46:05.914Z,17.00
2018-06-19T06:48:34.229Z,17.00
2018-06-19T06:51:02.559Z,17.00
2018-06-19T06:53:31.669Z,17.00
2018-06-19T06:55:59.999Z,17.00
2018-06-19T06:58:28.711Z,17.00
2018-06-19T07:00:57.001Z,16.90
2018-06-19T07:03:26.691Z,16.80
2018-06-19T07:05:55.024Z,16.70
2018-06-19T07:08:23.338Z,16.70
2018-06-19T07:10:51.650Z,16.70
2018-06-19T07:13:19.913Z,16.60
2018-06-19T07:15:48.322Z,16.60
2018-06-19T07:18:16.642Z,16.60
2018-06-19T07:20:44.986Z,16.50
2018-06-19T07:23:13.273Z,16.50
2018-06-19T07:25:41.597Z,16.50
2018-06-19T07:28:09.883Z,16.40
2018-06-19T07:30:38.169Z,16.40
2018-06-19T07:33:06.505Z,16.50
2018-06-19T07:35:34.839Z,16.40
2018-06-19T07:38:03.185Z,16.50
2018-06-19T07:40:31.465Z,16.50
2018-06-19T07:43:03.535Z,16.60
2018-06-19T07:45:32.161Z,16.60
2018-06-19T07:48:00.965Z,16.70
2018-06-19T07:50:30.061Z,16.70
2018-06-19T07:52:58.439Z,16.80
2018-06-19T07:55:26.863Z,16.80
2018-06-19T07:57:55.145Z,16.80
2018-06-19T08:00:23.901Z,16.90
2018-06-19T08:02:52.227Z,16.90
2018-06-19T08:05:20.515Z,17.00
2018-06-19T08:07:48.843Z,17.00
2018-06-19T08:10:17.153Z,17.10
2018-06-19T08:12:45.837Z,17.10
2018-06-19T08:15:14.199Z,17.20
2018-06-19T08:17:42.509Z,17.40
2018-06-19T08:20:11.259Z,17.40
2018-06-19T08:22:39.676Z,17.40
2018-06-19T08:25:08.038Z,17.40
2018-06-19T08:27:36.341Z,17.40
2018-06-19T08:30:04.751Z,17.50
2018-06-19T08:32:33.075Z,17.60
2018-06-19T08:35:01.433Z,17.60
2018-06-19T08:37:29.781Z,17.70
2018-06-19T08:39:58.083Z,17.80
2018-06-19T08:42:26.443Z,17.80
2018-06-19T08:44:54.768Z,17.80
2018-06-19T08:47:23.111Z,17.80
2018-06-19T08:49:51.445Z,17.80
2018-06-19T08:52:19.806Z,17.80
2018-06-19T08:54:48.129Z,17.90
2018-06-19T08:57:16.519Z,17.90
2018-06-19T08:59:44.839Z,17.90
2018-06-19T09:02:13.142Z,17.90
2018-06-19T09:04:41.485Z,17.90
2018-06-19T09:07:09.999Z,17.90
2018-06-19T09:09:38.305Z,17.80
2018-06-19T09:12:06.831Z,17.80
2018-06-19T09:14:35.258Z,17.80
2018-06-19T09:17:03.597Z,17.80
2018-06-19T09:21:59.968Z,17.90
2018-06-19T09:24:28.387Z,17.80
2018-06-19T09:26:56.675Z,17.80
2018-06-19T09:29:25.103Z,17.90
2018-06-19T09:31:53.457Z,17.90
2018-06-19T09:36:49.993Z,17.90
2018-06-19T09:39:18.299Z,17.90
2018-06-19T09:41:46.625Z,17.90
2018-06-19T09:44:15.018Z,17.90
2018-06-19T09:46:43.321Z,18.00
2018-06-19T09:49:11.735Z,18.00
2018-06-19T09:51:41.295Z,18.00
2018-06-19T09:54:09.603Z,18.10
2018-06-19T09:56:37.925Z,18.10
2018-06-19T09:59:06.307Z,18.10
2018-06-19T10:01:34.683Z,18.10
2018-06-19T10:04:03.269Z,18.20
2018-06-19T10:06:31.814Z,18.20
2018-06-19T10:09:00.251Z,18.20
2018-06-19T10:11:28.555Z,18.20
2018-06-19T10:13:56.860Z,18.20
2018-06-19T10:16:25.186Z,18.20
2018-06-19T10:18:53.505Z,18.20
2018-06-19T10:21:21.825Z,18.40
2018-06-19T10:23:50.118Z,18.50
2018-06-19T10:26:18.473Z,18.50
2018-06-19T10:28:46.803Z,18.50
2018-06-19T10:31:15.103Z,18.50
2018-06-19T10:33:43.403Z,18.50
2018-06-19T10:36:11.718Z,18.50
2018-06-19T10:38:40.055Z,18.50
2018-06-19T10:41:15.098Z,18.60
2018-06-19T10:43:43.387Z,18.80
2018-06-19T10:46:11.881Z,18.90
2018-06-19T10:48:40.211Z,19.00
2018-06-19T10:51:08.591Z,19.00
2018-06-19T10:53:36.915Z,19.00
2018-06-19T10:56:05.246Z,19.00
2018-06-19T10:58:33.597Z,19.10
2018-06-19T11:01:01.923Z,19.10
2018-06-19T11:03:30.805Z,19.10
2018-06-19T11:06:05.991Z,19.10
2018-06-19T11:08:34.294Z,19.10
2018-06-19T11:11:02.651Z,19.10
2018-06-19T11:13:31.308Z,19.10
2018-06-19T11:15:59.776Z,19.20
2018-06-19T11:18:28.125Z,19.20
2018-06-19T11:20:56.727Z,19.30
2018-06-19T11:23:25.644Z,19.30
2018-06-19T11:25:53.937Z,19.40
2018-06-19T11:28:22.257Z,19.40
2018-06-19T11:30:50.541Z,19.40
2018-06-19T11:33:18.871Z,19.40
2018-06-19T11:35:47.341Z,19.30
2018-06-19T11:38:15.878Z,19.20
2018-06-19T11:40:44.264Z,19.00
2018-06-19T11:43:12.635Z,19.00
2018-06-19T11:45:40.981Z,18.90
2018-06-19T11:48:09.453Z,18.80
2018-06-19T11:50:37.898Z,18.80
2018-06-19T11:53:06.273Z,18.80
2018-06-19T11:58:02.721Z,18.80
2018-06-19T12:00:31.047Z,18.80
2018-06-19T12:02:59.363Z,18.90
2018-06-19T12:05:27.720Z,19.00
2018-06-19T12:07:56.083Z,19.00
2018-06-19T12:10:24.470Z,19.00
2018-06-19T12:12:52.785Z,19.10
2018-06-19T12:15:21.123Z,19.10
2018-06-19T12:17:49.467Z,19.20
2018-06-19T12:20:17.829Z,19.20
2018-06-19T12:22:46.201Z,19.30
2018-06-19T12:30:10.735Z,19.60
2018-06-19T12:33:41.763Z,19.60
2018-06-19T12:38:38.418Z,19.90
2018-06-19T12:41:07.078Z,19.90
2018-06-19T12:43:35.471Z,19.60
2018-06-19T12:46:03.818Z,19.50
2018-06-19T12:48:32.195Z,19.50
2018-06-19T12:52:10.189Z,19.40
2018-06-19T12:54:53.188Z,19.50
2018-06-19T12:57:21.584Z,19.30
2018-06-19T12:59:49.871Z,19.30
2018-06-19T13:02:18.239Z,19.30
2018-06-19T13:04:58.058Z,19.30
2018-06-19T13:07:27.340Z,19.30
2018-06-19T13:09:55.808Z,19.40
2018-06-19T13:12:35.633Z,19.50
2018-06-19T13:15:04.059Z,19.60
2018-06-19T13:17:43.685Z,19.70
2018-06-19T13:20:23.319Z,19.70
2018-06-19T13:22:52.207Z,19.80
2018-06-19T13:25:20.551Z,19.80
2018-06-19T13:27:48.865Z,19.80
2018-06-19T13:30:28.561Z,19.80
2018-06-19T13:32:57.595Z,19.70
2018-06-19T13:35:25.991Z,19.70
2018-06-19T13:37:54.322Z,19.80
2018-06-19T13:41:30.995Z,19.70
2018-06-19T13:44:13.141Z,19.80
2018-06-19T13:46:41.806Z,19.90
2018-06-19T13:49:10.114Z,19.90
2018-06-19T13:51:38.427Z,20.10
2018-06-19T13:54:06.761Z,20.40
2018-06-19T13:57:46.271Z,20.70
2018-06-19T14:00:16.525Z,20.90
2018-06-19T14:02:44.857Z,21.30
2018-06-19T14:05:14.091Z,21.50
2018-06-19T14:08:51.087Z,21.80
2018-06-19T14:11:30.875Z,21.80
2018-06-19T14:13:59.300Z,21.70
2018-06-19T14:16:27.621Z,21.70
2018-06-19T14:18:55.931Z,21.60
2018-06-19T14:21:24.233Z,21.50
2018-06-19T14:23:52.545Z,21.40
2018-06-19T14:26:20.852Z,21.30
2018-06-19T14:28:49.208Z,21.30
2018-06-19T14:31:17.513Z,21.40
2018-06-19T14:33:45.827Z,21.50
2018-06-19T14:36:14.157Z,21.70
2018-06-19T14:38:42.493Z,21.70
2018-06-19T14:41:10.809Z,21.70
2018-06-19T14:43:39.140Z,21.80
2018-06-19T14:46:07.445Z,21.90
2018-06-19T14:48:35.749Z,22.20
2018-06-19T14:51:04.025Z,22.00
2018-06-19T14:53:32.352Z,22.00
2018-06-19T14:56:00.640Z,22.30
2018-06-19T14:58:28.948Z,22.30
2018-06-19T15:00:57.323Z,22.30
2018-06-19T15:03:25.689Z,22.20
2018-06-19T15:05:53.989Z,22.10
2018-06-19T15:08:22.378Z,22.00
2018-06-19T15:10:50.705Z,22.30
2018-06-19T15:13:19.016Z,22.60
2018-06-19T15:15:47.314Z,23.10
2018-06-19T15:18:15.708Z,23.00
2018-06-19T15:20:44.008Z,22.90
2018-06-19T15:23:12.300Z,22.80
2018-06-19T15:25:40.682Z,22.60
2018-06-19T15:28:09.066Z,22.50
2018-06-19T15:30:37.387Z,22.20
2018-06-19T15:33:05.754Z,22.10
2018-06-19T15:35:34.101Z,22.10
2018-06-19T15:38:02.413Z,22.00
2018-06-19T15:40:30.801Z,22.00
2018-06-19T15:42:59.112Z,22.00
2018-06-19T15:45:27.448Z,22.10
2018-06-19T15:47:55.746Z,22.20
2018-06-19T15:50:24.142Z,22.20
2018-06-19T15:52:52.442Z,22.10
2018-06-19T15:55:20.782Z,22.10
2018-06-19T15:57:49.080Z,22.10
2018-06-19T16:02:45.500Z,22.10
2018-06-19T16:05:13.830Z,21.90
2018-06-19T16:07:47.628Z,21.80
2018-06-19T16:10:15.944Z,21.70
2018-06-19T16:12:44.309Z,21.70
2018-06-19T16:15:12.630Z,21.60
2018-06-19T16:17:40.985Z,21.60
2018-06-19T16:20:09.295Z,21.50
2018-06-19T16:27:33.715Z,21.40
2018-06-19T16:30:03.140Z,21.40
2018-06-19T16:32:31.456Z,21.50
2018-06-19T16:34:59.796Z,21.80
2018-06-19T16:37:28.174Z,21.90
2018-06-19T16:39:56.482Z,21.70
2018-06-19T16:42:24.838Z,21.60
2018-06-19T16:44:53.168Z,21.70
2018-06-19T16:47:21.482Z,21.70
2018-06-19T16:49:49.784Z,21.60
2018-06-19T16:52:18.109Z,21.70
2018-06-19T16:54:46.472Z,21.90
2018-06-19T16:57:14.798Z,22.10
2018-06-19T16:59:43.120Z,22.20
2018-06-19T17:02:11.466Z,22.20
2018-06-19T17:04:39.832Z,22.00
2018-06-19T17:07:08.208Z,21.90
2018-06-19T17:09:36.584Z,21.80
2018-06-19T17:12:04.870Z,21.70
2018-06-19T17:14:33.174Z,21.60
2018-06-19T17:17:01.476Z,21.50
2018-06-19T17:19:29.830Z,21.50
2018-06-19T17:21:58.168Z,21.30
2018-06-19T17:24:26.652Z,21.20
2018-06-19T17:26:54.962Z,21.20
2018-06-19T17:29:23.291Z,21.30
2018-06-19T17:31:51.624Z,21.30
2018-06-19T17:34:19.951Z,21.30
2018-06-19T17:36:48.254Z,21.50
2018-06-19T17:39:16.622Z,21.60
2018-06-19T17:41:44.928Z,21.70
2018-06-19T17:44:13.256Z,21.80
2018-06-19T17:46:41.576Z,21.90
2018-06-19T17:49:09.910Z,21.90
2018-06-19T17:51:38.247Z,22.00
2018-06-19T17:54:06.621Z,22.00
2018-06-19T17:59:03.131Z,22.00
2018-06-19T18:01:31.446Z,22.00
2018-06-19T18:03:59.776Z,22.00
2018-06-19T18:06:28.109Z,21.90
2018-06-19T18:08:56.418Z,21.90
2018-06-19T18:11:24.772Z,21.80
2018-06-19T18:13:53.092Z,21.80
2018-06-19T18:16:21.416Z,21.70
2018-06-19T18:18:56.243Z,21.60
2018-06-19T18:21:25.086Z,21.70
2018-06-19T18:23:53.479Z,21.60
2018-06-19T18:26:21.765Z,21.60
2018-06-19T18:28:50.138Z,21.70
2018-06-19T18:31:18.455Z,21.70
2018-06-19T18:33:46.849Z,21.60
2018-06-19T18:36:15.188Z,21.60
2018-06-19T18:38:43.518Z,21.70
2018-06-19T18:41:11.888Z,21.50
2018-06-19T18:46:08.239Z,21.30
2018-06-19T18:48:36.541Z,21.20
2018-06-19T18:51:04.850Z,21.10
2018-06-19T18:53:33.186Z,20.90
2018-06-19T18:56:01.508Z,20.80
2018-06-19T19:03:26.036Z,20.60
2018-06-19T19:08:23.805Z,20.50
2018-06-19T19:10:54.557Z,20.50
2018-06-19T19:13:24.110Z,20.50
2018-06-19T19:15:57.760Z,20.40
2018-06-19T19:18:31.386Z,20.40
2018-06-19T19:21:00.465Z,20.40
2018-06-19T19:23:29.442Z,20.30
2018-06-19T19:25:57.837Z,20.20
2018-06-19T19:28:31.681Z,20.20
2018-06-19T19:31:00.066Z,20.10
2018-06-19T19:33:28.468Z,20.10
2018-06-19T19:35:56.801Z,20.20
2018-06-19T19:38:30.403Z,20.20
2018-06-19T19:40:58.795Z,20.20
2018-06-19T19:43:27.248Z,20.10
2018-06-19T19:45:55.603Z,20.00
2018-06-19T19:48:29.410Z,20.00
2018-06-19T19:50:57.734Z,20.00
2018-06-19T19:53:26.084Z,20.00
2018-06-19T19:55:59.735Z,20.00
2018-06-19T19:58:33.348Z,19.90
2018-06-19T20:01:01.659Z,19.90
2018-06-19T20:03:30.009Z,20.00
2018-06-19T20:05:58.420Z,20.00
2018-06-19T20:08:27.616Z,20.00
2018-06-19T20:10:55.950Z,20.00
2018-06-19T20:13:24.335Z,19.90
2018-06-19T20:15:52.656Z,19.90
2018-06-19T20:20:55.553Z,19.80
2018-06-19T20:23:23.888Z,19.80
2018-06-19T20:25:52.208Z,19.80
2018-06-19T20:28:20.518Z,19.80
2018-06-19T20:30:48.833Z,19.70
2018-06-19T20:33:17.171Z,19.70
2018-06-19T20:35:45.530Z,19.60
2018-06-19T20:38:14.458Z,19.60
2018-06-19T20:40:42.804Z,19.60
2018-06-19T20:43:11.128Z,19.50
2018-06-19T20:45:40.324Z,19.50
2018-06-19T20:48:08.802Z,19.50
2018-06-19T20:50:39.166Z,19.50
2018-06-19T20:53:07.545Z,19.50
2018-06-19T20:55:35.856Z,19.50
2018-06-19T20:58:04.233Z,19.40
2018-06-19T21:00:32.716Z,19.30
2018-06-19T21:03:01.074Z,19.30
2018-06-19T21:05:29.422Z,19.30
2018-06-19T21:10:25.991Z,19.20
2018-06-19T21:12:54.288Z,19.20
2018-06-19T21:15:23.542Z,19.20
2018-06-19T21:17:51.883Z,19.20
2018-06-19T21:20:20.198Z,19.20
2018-06-19T21:22:50.160Z,19.10
2018-06-19T21:25:18.546Z,19.10
2018-06-19T21:27:46.875Z,19.00
2018-06-19T21:30:15.182Z,19.00
2018-06-19T21:32:43.546Z,18.90
2018-06-19T21:35:11.878Z,18.90
2018-06-19T21:37:40.174Z,18.90
2018-06-19T21:40:08.796Z,18.90
2018-06-19T21:42:37.116Z,18.90
2018-06-19T21:45:05.582Z,18.80
2018-06-19T21:47:33.881Z,18.80
2018-06-19T21:50:02.236Z,18.80
2018-06-19T21:52:30.512Z,18.80
2018-06-19T21:54:58.834Z,18.80
2018-06-19T21:59:55.384Z,18.80
2018-06-19T22:02:29.092Z,18.80
2018-06-19T22:04:57.387Z,18.70
2018-06-19T22:07:25.670Z,18.70
2018-06-19T22:09:53.972Z,18.60
2018-06-19T22:12:22.298Z,18.60
2018-06-19T22:14:50.614Z,18.60
2018-06-19T22:17:18.902Z,18.50
2018-06-19T22:19:47.319Z,18.50
2018-06-19T22:22:15.620Z,18.50
2018-06-19T22:24:43.935Z,18.50
2018-06-19T22:27:12.271Z,18.40
2018-06-19T22:29:40.595Z,18.40
2018-06-19T22:32:08.965Z,18.40
2018-06-19T22:34:37.249Z,18.30
2018-06-19T22:37:05.515Z,18.30
2018-06-19T22:39:34.014Z,18.20
2018-06-19T22:42:02.340Z,18.20
2018-06-19T22:44:30.681Z,18.10
2018-06-19T22:46:59.041Z,18.20
2018-06-19T22:49:27.323Z,18.20
2018-06-19T22:51:55.615Z,18.30
2018-06-19T22:54:23.934Z,18.20
2018-06-19T22:56:52.216Z,18.20
2018-06-19T22:59:20.549Z,18.10
2018-06-19T23:01:48.866Z,18.10
2018-06-19T23:04:17.336Z,18.00
2018-06-19T23:06:45.700Z,18.00
2018-06-19T23:09:14.007Z,18.00
2018-06-19T23:11:42.318Z,18.00
2018-06-19T23:14:10.599Z,17.90
2018-06-19T23:16:38.940Z,17.90
2018-06-19T23:19:07.279Z,17.80
2018-06-19T23:21:35.597Z,17.80
2018-06-19T23:24:03.918Z,17.70
2018-06-19T23:26:32.233Z,17.70
2018-06-19T23:29:00.555Z,17.70
2018-06-19T23:31:28.813Z,17.60
2018-06-19T23:33:57.138Z,17.60
2018-06-19T23:36:25.455Z,17.60
2018-06-19T23:38:53.780Z,17.50
2018-06-19T23:43:50.264Z,17.40
2018-06-19T23:46:18.781Z,17.40
2018-06-19T23:48:47.107Z,17.40
2018-06-19T23:51:15.439Z,17.40
2018-06-19T23:53:43.751Z,17.40
2018-06-19T23:56:12.062Z,17.40
2018-06-19T23:58:40.350Z,17.40
